Portada
METAR-TAF:

METAR-TAF

Aeroports :

Dakar, Senegal

latitud: 14-44N, longitud: 017-30W, altitud: 27 m

Observació

L'informe es va fer fa 1 hora i 10 minuts, a les 17:00 UTC
Vent 14 kt del Nord/Nord-Oest
Temperatura 25°C
Humitat 79%
Pressió 1013 hPa
Visibilitat 10 km o més
Núvols disperses a una alçada de 1100 ft

METAR: GOOY 021700Z 34014KT 9999 SCT011 25/21 Q1013

Hora: 18:10 (18:10 UTC)

Pronòstic

L'informe es va fer fa 40 minuts, a les 17:30 UTC
Pronòstic vàlid del 02 a les 18 UTC al 03 a les 24 UTC
Vent 12 kt del Nord
Visibilitat 10 km o més
Núvols disperses a una alçada de 1100 ft

TAF: GOOY 021730Z 0218/0324 36012KT 9999 SCT011

Observacions i pronòstics meteorològics de més de 4000 aeroports (METAR i TAF).

Les estacions disponibles són els punts grocs i vermells al mapa.

Posi el ratolí al punt desitjat per veure el nom de l'estació.

Feu clic per veure les observacions i els pronòstics meteorològics.

Per canviar el mapa: feu clic els botons verds amb una creu de color negre per apropar; al botó verd amb un guió per allunyar la imatge; o en les fletxes verdes per a mapes adjacents.


METAR-TAF: